Aérodrome :
LOGIN :

S'inscrire | Disclaimer

   EN    FR    IT 

 










Légende :    VFR   VFR Marginal   IFR   IFR Intensif   IFR Très Intensif
Visi : 
Plafond : 
>= 8 km
>= 3000ft
5 à 8 km
1000 à 3000 ft
1500m à 5 km
500 à 1000 ft
800 à 1500m
200 à 500 ft
< 800m
< 200 ft
Symboles :   Orages  Brouillard  Fortes neiges  Fortes précipitations  Vent > 20 kt
SIGMETs :   Divers  Orages  Givrage  Turbulence  Onde Orograph.  Cendres Volcan.






- Altitude de l'aérodrome : 1411 ft
- Code IATA : ZHI


LSZG - Grenchen

DERNIER METAR :
  • 162150Z AUTO 00000KT 9999 NSC 19/12 Q1010

METARs EXPIRÉS :
  • 162120Z AUTO 08001KT 9999 NSC 19/13 Q1010
  • 162050Z AUTO 09004KT 9999 NSC 18/13 Q1010
  • 162020Z AUTO 06004KT 9999 NCD 21/13 Q1010
  • 161950Z AUTO 09004KT 9999 NCD 20/14 Q1010
  • 161920Z AUTO 07004KT 9999 NCD 22/12 Q1010

TAF TAF LSZG
Valide du 16 à 15h jusqu'au 17 à 00h UTC


161425Z 1615/1624 23005KT 9999 FEW040
BECMG 1615/1618 CAVOK
ATIS : +41 32 396 96 33



MET'MAP, la Météo Aéronautique d'un coup d'oeil ! - Copyright ORBIFLY Décembre 2007 - Disclaimer

ORBIFLY MET'MAP TEAM :

Programmation & Développement : Alexandra Zaïnal
Sur une idée originale de : Baudouin d'Aumeries
Soutien technique & logistique : Manuel Goepfert
Assistance : Marc-Olivier Méhu




SOURCES & CREDITS :

   NOAA